Time;durP1;ratioP1;P1;durP2;ratioP2;P2;SDS_P1;SDS_P2;PMS_P1;PMS_P2;Temp;Humidity;BMP_temperature;BMP_pressure;BME280_temperature;BME280_humidity;BME280_pressure;Samples;Min_cycle;Max_cycle;Signal;HPM_P1;HPM_P2
2022/06/04 00:00:09;;;;;;;26.58;13.45;;;;;;;;;;5055322;28;20057;-25
2022/06/04 00:02:43;;;;;;;27.80;14.60;;;;;;;;;;5055556;28;20064;-25
2022/06/04 00:05:10;;;;;;;25.40;12.13;;;;;;;;;;5056348;28;20051;-25
2022/06/04 00:07:36;;;;;;;23.30;12.70;;;;;;;;;;5057182;28;20051;-25
2022/06/04 00:15:44;;;;;;;23.73;12.38;;;;;;;;;;5056574;28;20056;-25
2022/06/04 00:18:11;;;;;;;24.65;12.40;;;;;;;;;;5057024;28;20375;-25
2022/06/04 00:20:37;;;;;;;24.05;12.13;;;;;;;;;;5056082;28;20049;-25
2022/06/04 00:23:04;;;;;;;20.50;10.18;;;;;;;;;;5055476;28;20083;-26
2022/06/04 00:25:30;;;;;;;20.10;10.30;;;;;;;;;;5064189;28;20076;-26
2022/06/04 00:27:57;;;;;;;25.02;10.85;;;;;;;;;;5075954;28;20041;-25
2022/06/04 00:30:23;;;;;;;19.83;10.43;;;;;;;;;;5075895;28;20056;-25
2022/06/04 00:32:50;;;;;;;16.65;9.98;;;;;;;;;;5072114;28;20405;-25
2022/06/04 00:35:16;;;;;;;23.35;11.02;;;;;;;;;;5074885;28;20502;-27
2022/06/04 00:37:42;;;;;;;17.13;10.50;;;;;;;;;;5075777;28;20102;-25
2022/06/04 00:40:09;;;;;;;18.58;10.05;;;;;;;;;;5075712;28;20487;-25
2022/06/04 00:42:35;;;;;;;22.02;10.40;;;;;;;;;;5072939;28;20053;-26
2022/06/04 00:45:17;;;;;;;16.65;9.80;;;;;;;;;;5075650;28;20482;-25
2022/06/04 00:47:43;;;;;;;17.58;10.00;;;;;;;;;;5075919;28;20138;-25
2022/06/04 00:50:10;;;;;;;19.17;9.27;;;;;;;;;;5075353;28;20079;-25
2022/06/04 00:52:36;;;;;;;20.33;9.32;;;;;;;;;;5074028;28;20573;-25
2022/06/04 00:55:04;;;;;;;21.35;10.18;;;;;;;;;;5076321;28;20467;-25
2022/06/04 00:57:53;;;;;;;21.48;9.65;;;;;;;;;;5074308;28;20094;-25
2022/06/04 01:00:22;;;;;;;21.25;9.25;;;;;;;;;;5076247;28;20080;-26
2022/06/04 01:03:04;;;;;;;20.00;8.43;;;;;;;;;;5063867;28;20045;-25
2022/06/04 01:05:33;;;;;;;15.00;8.82;;;;;;;;;;5070165;28;20049;-25
2022/06/04 01:08:08;;;;;;;18.67;8.80;;;;;;;;;;5075229;28;20049;-25
2022/06/04 01:10:39;;;;;;;16.73;8.73;;;;;;;;;;5075153;28;20049;-25
2022/06/04 01:13:24;;;;;;;22.30;9.57;;;;;;;;;;5066754;28;20057;-25
2022/06/04 01:15:59;;;;;;;20.65;8.20;;;;;;;;;;5055053;28;20084;-25
2022/06/04 01:18:44;;;;;;;20.77;9.02;;;;;;;;;;5055516;28;20128;-25
2022/06/04 01:21:13;;;;;;;20.92;7.63;;;;;;;;;;5054984;28;20407;-25
2022/06/04 01:23:58;;;;;;;12.23;7.40;;;;;;;;;;5057762;28;20040;-25
2022/06/04 01:26:24;;;;;;;17.77;7.10;;;;;;;;;;5074065;28;20048;-25
2022/06/04 01:28:52;;;;;;;19.60;7.70;;;;;;;;;;5074796;28;20186;-26
2022/06/04 01:31:24;;;;;;;15.25;7.88;;;;;;;;;;5075231;28;20044;-24
2022/06/04 01:33:52;;;;;;;14.07;7.05;;;;;;;;;;5071318;28;20128;-25
2022/06/04 01:36:22;;;;;;;15.35;7.95;;;;;;;;;;5074886;28;20052;-25
2022/06/04 01:38:50;;;;;;;14.63;7.00;;;;;;;;;;5074828;28;20040;-25
2022/06/04 01:41:22;;;;;;;14.63;7.47;;;;;;;;;;5073552;28;20054;-25
2022/06/04 01:43:56;;;;;;;17.08;7.53;;;;;;;;;;5053610;28;20119;-25
2022/06/04 01:46:22;;;;;;;;;;;;;;;;;;5053395;28;20058;-26
2022/06/04 01:48:51;;;;;;;14.15;6.90;;;;;;;;;;5073355;28;19999;-26
2022/06/04 01:51:20;;;;;;;13.43;7.05;;;;;;;;;;5073111;28;20091;-25
2022/06/04 01:53:48;;;;;;;15.35;8.90;;;;;;;;;;5071671;28;20071;-25
2022/06/04 01:56:18;;;;;;;12.70;6.95;;;;;;;;;;5075088;28;20101;-25
2022/06/04 01:58:52;;;;;;;15.10;8.38;;;;;;;;;;5073671;28;20045;-25
2022/06/04 02:01:21;;;;;;;17.23;8.85;;;;;;;;;;5074469;28;20066;-25
2022/06/04 02:03:51;;;;;;;12.50;8.02;;;;;;;;;;5073044;28;20048;-25
2022/06/04 02:06:23;;;;;;;21.30;9.35;;;;;;;;;;5074292;28;20091;-25
2022/06/04 02:08:55;;;;;;;19.33;9.93;;;;;;;;;;5073878;28;20139;-25
2022/06/04 02:11:23;;;;;;;22.10;9.98;;;;;;;;;;5074293;28;20040;-25
2022/06/04 02:13:50;;;;;;;15.48;9.27;;;;;;;;;;5064445;28;20461;-25
2022/06/04 02:16:23;;;;;;;18.05;10.15;;;;;;;;;;5053933;28;20068;-25
2022/06/04 02:18:49;;;;;;;19.33;9.80;;;;;;;;;;5054544;28;20055;-25
2022/06/04 02:21:18;;;;;;;17.90;9.70;;;;;;;;;;5054429;28;20055;-25
2022/06/04 02:23:44;;;;;;;17.65;9.10;;;;;;;;;;5053788;28;20053;-25
2022/06/04 02:26:10;;;;;;;25.33;9.80;;;;;;;;;;5054487;28;20139;-25
2022/06/04 02:28:37;;;;;;;16.92;9.23;;;;;;;;;;5053830;28;20133;-25
2022/06/04 02:31:12;;;;;;;19.58;8.68;;;;;;;;;;5053734;28;20091;-25
2022/06/04 02:33:50;;;;;;;14.82;9.15;;;;;;;;;;5053723;28;20051;-25
2022/06/04 02:36:20;;;;;;;15.27;8.40;;;;;;;;;;5069355;28;20055;-25
2022/06/04 02:38:59;;;;;;;14.50;8.60;;;;;;;;;;5073961;28;20202;-25
2022/06/04 02:41:31;;;;;;;16.30;7.97;;;;;;;;;;5074234;28;20059;-25
2022/06/04 02:44:02;;;;;;;11.75;6.50;;;;;;;;;;5056477;28;20059;-25
2022/06/04 02:46:38;;;;;;;10.38;6.90;;;;;;;;;;5055596;28;20056;-25
2022/06/04 02:49:10;;;;;;;11.48;6.78;;;;;;;;;;5036009;28;20074;-25
2022/06/04 02:51:39;;;;;;;13.30;7.40;;;;;;;;;;5052418;28;20037;-25
2022/06/04 02:54:08;;;;;;;12.10;7.85;;;;;;;;;;5053516;28;20131;-25
2022/06/04 02:56:35;;;;;;;15.73;8.55;;;;;;;;;;5065047;28;20044;-25
2022/06/04 02:59:04;;;;;;;13.80;7.50;;;;;;;;;;5073487;28;20102;-26
2022/06/04 03:01:32;;;;;;;15.23;7.78;;;;;;;;;;5073451;28;20049;-25
2022/06/04 03:03:58;;;;;;;16.33;8.05;;;;;;;;;;5073476;28;20094;-25
2022/06/04 03:06:32;;;;;;;14.40;7.72;;;;;;;;;;5071946;28;20442;-25
2022/06/04 03:08:59;;;;;;;11.98;8.40;;;;;;;;;;5073704;28;20143;-25
2022/06/04 03:11:26;;;;;;;17.90;7.93;;;;;;;;;;5077382;28;20444;-26
2022/06/04 03:13:52;;;;;;;15.68;7.75;;;;;;;;;;5077526;28;20063;-25
2022/06/04 03:16:18;;;;;;;12.27;7.90;;;;;;;;;;5075573;28;20402;-25
2022/06/04 03:18:44;;;;;;;14.90;7.70;;;;;;;;;;5059675;28;20056;-25
2022/06/04 03:21:11;;;;;;;13.75;8.23;;;;;;;;;;5056357;28;20045;-25
2022/06/04 03:23:37;;;;;;;12.48;7.88;;;;;;;;;;5057292;28;20045;-25
2022/06/04 03:26:04;;;;;;;13.88;8.25;;;;;;;;;;5057166;28;20049;-26
2022/06/04 03:28:30;;;;;;;13.52;8.38;;;;;;;;;;5075512;28;20473;-25
2022/06/04 03:30:57;;;;;;;16.63;9.20;;;;;;;;;;5077568;28;20052;-25
2022/06/04 03:33:23;;;;;;;12.02;7.93;;;;;;;;;;5076009;28;20490;-25
2022/06/04 03:35:49;;;;;;;12.90;7.28;;;;;;;;;;5076951;28;20040;-25
2022/06/04 03:38:15;;;;;;;15.38;8.27;;;;;;;;;;5067039;28;20178;-25
2022/06/04 03:40:41;;;;;;;17.60;8.07;;;;;;;;;;5076030;28;20048;-25
2022/06/04 03:43:08;;;;;;;12.90;7.80;;;;;;;;;;5075903;28;20051;-25
2022/06/04 03:45:34;;;;;;;14.98;8.10;;;;;;;;;;5075801;28;20037;-25
2022/06/04 03:48:00;;;;;;;17.48;8.50;;;;;;;;;;5067252;28;20083;-25
2022/06/04 03:50:26;;;;;;;17.23;8.15;;;;;;;;;;5056713;28;20047;-25
2022/06/04 03:52:52;;;;;;;12.23;7.82;;;;;;;;;;5056674;28;20395;-25
2022/06/04 03:55:19;;;;;;;13.00;8.57;;;;;;;;;;5056632;28;20048;-25
2022/06/04 03:57:49;;;;;;;12.77;7.85;;;;;;;;;;5056541;28;20072;-25
2022/06/04 04:00:15;;;;;;;10.20;7.35;;;;;;;;;;5056806;28;20056;-25
2022/06/04 04:02:43;;;;;;;10.48;6.85;;;;;;;;;;5056556;28;20544;-26
2022/06/04 04:05:10;;;;;;;14.23;8.07;;;;;;;;;;5056050;28;20406;-25
2022/06/04 04:07:36;;;;;;;10.60;6.95;;;;;;;;;;5056385;28;20061;-25
2022/06/04 04:10:03;;;;;;;11.65;7.30;;;;;;;;;;5070742;28;20049;-25
2022/06/04 04:12:29;;;;;;;11.30;6.78;;;;;;;;;;5075253;28;20123;-25
2022/06/04 04:14:56;;;;;;;18.67;8.30;;;;;;;;;;5073413;28;20063;-25
2022/06/04 04:17:25;;;;;;;12.95;7.32;;;;;;;;;;5075081;28;20053;-25
2022/06/04 04:19:51;;;;;;;11.98;7.57;;;;;;;;;;5063585;28;20399;-26
2022/06/04 04:22:18;;;;;;;10.25;6.90;;;;;;;;;;5054608;28;20049;-25
2022/06/04 04:24:44;;;;;;;13.30;7.63;;;;;;;;;;5055475;28;20056;-25
2022/06/04 04:27:11;;;;;;;10.63;7.20;;;;;;;;;;5055396;28;20375;-25
2022/06/04 04:29:37;;;;;;;11.38;7.18;;;;;;;;;;5054677;28;20427;-25
2022/06/04 04:32:04;;;;;;;15.05;7.95;;;;;;;;;;5054392;28;20446;-25
2022/06/04 04:34:30;;;;;;;13.07;7.65;;;;;;;;;;5054792;28;20045;-26
2022/06/04 04:36:57;;;;;;;16.50;7.45;;;;;;;;;;5055264;28;20052;-25
2022/06/04 04:39:23;;;;;;;11.45;6.70;;;;;;;;;;5054954;28;20049;-25
2022/06/04 04:41:49;;;;;;;13.98;7.03;;;;;;;;;;5070282;28;20102;-25
2022/06/04 04:44:15;;;;;;;12.55;6.55;;;;;;;;;;5074687;28;20051;-25
2022/06/04 04:46:41;;;;;;;9.80;6.30;;;;;;;;;;5075120;28;20051;-25
2022/06/04 04:49:08;;;;;;;13.25;7.28;;;;;;;;;;5074623;28;20121;-25
2022/06/04 04:51:34;;;;;;;12.27;6.50;;;;;;;;;;5072446;28;20093;-25
2022/06/04 04:54:01;;;;;;;12.90;6.60;;;;;;;;;;5057693;28;20075;-26
2022/06/04 04:56:27;;;;;;;10.73;6.13;;;;;;;;;;5074449;28;20044;-26
2022/06/04 04:58:54;;;;;;;10.80;6.70;;;;;;;;;;5074436;28;20152;-25
2022/06/04 05:01:21;;;;;;;10.35;6.68;;;;;;;;;;5070918;28;20051;-26
2022/06/04 05:03:47;;;;;;;13.00;6.35;;;;;;;;;;5074629;28;20052;-26
2022/06/04 05:06:14;;;;;;;8.18;5.63;;;;;;;;;;5074259;28;20052;-26
2022/06/04 05:08:41;;;;;;;7.30;5.80;;;;;;;;;;5074310;28;20105;-26
2022/06/04 05:11:08;;;;;;;7.80;5.32;;;;;;;;;;5074492;28;20390;-27
2022/06/04 05:13:35;;;;;;;9.15;5.03;;;;;;;;;;5031192;28;1171998;-26
2022/06/04 05:16:01;;;;;;;10.10;5.15;;;;;;;;;;5074228;28;20060;-26
2022/06/04 05:18:27;;;;;;;9.40;5.10;;;;;;;;;;5075086;28;20044;-26
2022/06/04 05:20:53;;;;;;;10.00;5.10;;;;;;;;;;5074995;28;20056;-26
2022/06/04 05:23:19;;;;;;;10.85;4.70;;;;;;;;;;5067701;28;20071;-26
2022/06/04 05:25:45;;;;;;;8.30;4.82;;;;;;;;;;5060310;28;20127;-26
2022/06/04 05:28:11;;;;;;;6.43;4.85;;;;;;;;;;5055235;28;20061;-26
2022/06/04 05:30:37;;;;;;;10.57;4.75;;;;;;;;;;5055022;28;20040;-26
2022/06/04 05:33:03;;;;;;;10.35;4.82;;;;;;;;;;5064121;28;20379;-26
2022/06/04 05:35:29;;;;;;;9.93;4.85;;;;;;;;;;5060211;28;20056;-26
2022/06/04 05:37:55;;;;;;;7.55;4.85;;;;;;;;;;5069528;28;20083;-26
2022/06/04 05:40:21;;;;;;;7.82;4.72;;;;;;;;;;5074589;28;20117;-26
2022/06/04 05:42:48;;;;;;;6.15;4.28;;;;;;;;;;5059693;28;20044;-26
2022/06/04 05:45:14;;;;;;;6.20;4.22;;;;;;;;;;5054554;28;20052;-26
2022/06/04 05:47:40;;;;;;;7.53;4.63;;;;;;;;;;5054801;28;20048;-26
2022/06/04 05:50:06;;;;;;;7.22;4.65;;;;;;;;;;5067894;28;20451;-26
2022/06/04 05:52:32;;;;;;;11.90;5.68;;;;;;;;;;5074295;28;20045;-26
2022/06/04 05:54:58;;;;;;;5.05;3.63;;;;;;;;;;5074286;28;20486;-26
2022/06/04 05:57:25;;;;;;;7.38;3.78;;;;;;;;;;5074289;28;20398;-27
2022/06/04 05:59:51;;;;;;;4.78;3.05;;;;;;;;;;5073265;28;20154;-26
2022/06/04 06:02:17;;;;;;;5.15;3.08;;;;;;;;;;5074226;28;20071;-26
2022/06/04 06:04:43;;;;;;;5.15;3.03;;;;;;;;;;5074040;28;20102;-26
2022/06/04 06:07:09;;;;;;;5.45;3.38;;;;;;;;;;5073185;28;20055;-26
2022/06/04 06:09:35;;;;;;;11.27;3.80;;;;;;;;;;5074224;28;20440;-26
2022/06/04 06:12:01;;;;;;;6.50;3.25;;;;;;;;;;5073942;28;20044;-25
2022/06/04 06:14:28;;;;;;;11.25;3.78;;;;;;;;;;5074248;28;20056;-25
2022/06/04 06:16:54;;;;;;;6.55;3.92;;;;;;;;;;5059908;28;20146;-26
2022/06/04 06:19:22;;;;;;;7.63;3.83;;;;;;;;;;5063794;28;20041;-25
2022/06/04 06:21:48;;;;;;;9.63;3.80;;;;;;;;;;5059590;28;20048;-26
2022/06/04 06:24:16;;;;;;;7.90;4.47;;;;;;;;;;5064669;28;20067;-25
2022/06/04 06:26:48;;;;;;;7.53;3.70;;;;;;;;;;5073864;28;20044;-26
2022/06/04 06:29:15;;;;;;;6.80;4.00;;;;;;;;;;5054420;28;20049;-26
2022/06/04 06:31:42;;;;;;;6.28;3.75;;;;;;;;;;5059968;28;20124;-26
2022/06/04 06:34:09;;;;;;;6.53;3.80;;;;;;;;;;5059744;28;20048;-27
2022/06/04 06:36:35;;;;;;;5.38;3.30;;;;;;;;;;5058521;28;20048;-29
2022/06/04 06:39:01;;;;;;;6.90;3.80;;;;;;;;;;5064643;28;20040;-26
2022/06/04 06:41:27;;;;;;;7.53;3.63;;;;;;;;;;5055062;28;20052;-26
2022/06/04 06:43:54;;;;;;;4.55;3.55;;;;;;;;;;5054052;28;20052;-26
2022/06/04 06:46:25;;;;;;;9.20;4.20;;;;;;;;;;5053648;28;20449;-26
2022/06/04 06:48:53;;;;;;;7.22;3.65;;;;;;;;;;5035991;28;20049;-27
2022/06/04 06:51:28;;;;;;;5.43;3.50;;;;;;;;;;5053210;28;20498;-26
2022/06/04 06:53:55;;;;;;;5.72;3.50;;;;;;;;;;5053818;28;20492;-26
2022/06/04 06:56:23;;;;;;;6.63;3.28;;;;;;;;;;5053052;28;20413;-27
2022/06/04 06:58:49;;;;;;;7.40;3.47;;;;;;;;;;5051384;28;20110;-26
2022/06/04 07:01:15;;;;;;;6.72;3.47;;;;;;;;;;5053387;28;20059;-26
2022/06/04 07:03:42;;;;;;;8.18;3.22;;;;;;;;;;5053516;28;20059;-26
2022/06/04 07:06:09;;;;;;;5.47;2.90;;;;;;;;;;5052106;28;20045;-26
2022/06/04 07:08:36;;;;;;;9.13;3.80;;;;;;;;;;5053700;28;20045;-25
2022/06/04 07:11:02;;;;;;;6.65;3.53;;;;;;;;;;5053433;28;20056;-25
2022/06/04 07:13:28;;;;;;;5.75;3.47;;;;;;;;;;5051912;28;20052;-26
2022/06/04 07:15:54;;;;;;;5.68;3.28;;;;;;;;;;5053907;28;20061;-25
2022/06/04 07:18:20;;;;;;;5.43;2.80;;;;;;;;;;5053364;28;20102;-26
2022/06/04 07:20:47;;;;;;;5.97;3.33;;;;;;;;;;5053570;28;20540;-25
2022/06/04 07:23:13;;;;;;;6.53;3.65;;;;;;;;;;5053280;28;20041;-25
2022/06/04 07:25:41;;;;;;;3.92;3.15;;;;;;;;;;5053789;28;20048;-26
2022/06/04 07:28:08;;;;;;;8.77;3.40;;;;;;;;;;5053139;28;20490;-25
2022/06/04 07:30:35;;;;;;;7.10;4.22;;;;;;;;;;5053201;28;20053;-26
2022/06/04 07:33:01;;;;;;;7.88;3.25;;;;;;;;;;5053629;28;20052;-26
2022/06/04 07:35:27;;;;;;;6.07;3.08;;;;;;;;;;5053982;28;20056;-25
2022/06/04 07:37:53;;;;;;;5.70;3.22;;;;;;;;;;5053172;28;20098;-25
2022/06/04 07:40:19;;;;;;;11.20;3.30;;;;;;;;;;5053106;28;20055;-25
2022/06/04 07:42:46;;;;;;;9.43;3.13;;;;;;;;;;5053116;28;20041;-25
2022/06/04 07:45:12;;;;;;;6.30;3.10;;;;;;;;;;5052096;28;20491;-25
2022/06/04 07:47:40;;;;;;;7.03;2.90;;;;;;;;;;5053887;28;20107;-26
2022/06/04 07:50:07;;;;;;;3.92;3.03;;;;;;;;;;5053059;28;20049;-25
2022/06/04 07:52:34;;;;;;;7.95;3.28;;;;;;;;;;5052941;28;20041;-25
2022/06/04 07:55:00;;;;;;;6.47;3.28;;;;;;;;;;5052064;28;20053;-26
2022/06/04 07:57:27;;;;;;;5.60;2.83;;;;;;;;;;5056438;28;20174;-26
2022/06/04 07:59:53;;;;;;;4.95;2.83;;;;;;;;;;5056652;28;20076;-26
2022/06/04 08:02:21;;;;;;;4.07;3.05;;;;;;;;;;5056588;28;20138;-26
2022/06/04 08:04:48;;;;;;;5.35;2.90;;;;;;;;;;5039001;28;20508;-25
2022/06/04 08:07:15;;;;;;;5.13;2.63;;;;;;;;;;5038913;28;20048;-25
2022/06/04 08:09:41;;;;;;;5.60;2.97;;;;;;;;;;5056518;28;20498;-26
2022/06/04 08:12:07;;;;;;;5.97;3.13;;;;;;;;;;5056417;28;20045;-25
2022/06/04 08:14:33;;;;;;;4.55;3.22;;;;;;;;;;5056048;28;20063;-26
2022/06/04 08:17:00;;;;;;;4.10;2.92;;;;;;;;;;5056130;28;20052;-25
2022/06/04 08:19:28;;;;;;;7.50;2.85;;;;;;;;;;5056277;28;20053;-25
2022/06/04 08:21:55;;;;;;;5.43;2.90;;;;;;;;;;5055932;28;20465;-25
2022/06/04 08:24:21;;;;;;;3.40;2.63;;;;;;;;;;5056212;28;20055;-26
2022/06/04 08:26:53;;;;;;;5.03;2.55;;;;;;;;;;5056945;28;20076;-25
2022/06/04 08:29:20;;;;;;;4.80;2.93;;;;;;;;;;5056450;28;20196;-26
2022/06/04 08:31:46;;;;;;;5.93;3.10;;;;;;;;;;5056250;28;20044;-25
2022/06/04 08:34:12;;;;;;;5.30;2.70;;;;;;;;;;5056023;28;20132;-25
2022/06/04 08:36:39;;;;;;;7.63;3.45;;;;;;;;;;5055938;28;20045;-25
2022/06/04 08:39:05;;;;;;;4.75;2.50;;;;;;;;;;5055884;28;20578;-25
2022/06/04 08:41:32;;;;;;;5.20;2.70;;;;;;;;;;5056370;28;20053;-25
2022/06/04 08:44:07;;;;;;;8.57;3.75;;;;;;;;;;5055796;28;20548;-26
2022/06/04 08:46:51;;;;;;;6.25;2.90;;;;;;;;;;5055763;28;20045;-26
2022/06/04 08:49:34;;;;;;;4.70;2.58;;;;;;;;;;5055785;28;20128;-25
2022/06/04 08:52:02;;;;;;;5.20;2.60;;;;;;;;;;5056200;28;20422;-26
2022/06/04 08:57:36;;;;;;;4.35;2.17;;;;;;;;;;5055956;28;20474;-26
2022/06/04 09:00:18;;;;;;;3.33;2.35;;;;;;;;;;5037767;28;20092;-26
2022/06/04 09:02:44;;;;;;;6.20;2.42;;;;;;;;;;5056089;28;20494;-25
2022/06/04 09:05:16;;;;;;;5.55;2.97;;;;;;;;;;5055288;28;20549;-26
2022/06/04 09:07:47;;;;;;;4.68;2.70;;;;;;;;;;5053236;28;20049;-26
2022/06/04 09:10:15;;;;;;;3.10;2.22;;;;;;;;;;5055336;28;20049;-25
2022/06/04 09:12:47;;;;;;;5.07;2.20;;;;;;;;;;5055187;28;20116;-26
2022/06/04 09:15:13;;;;;;;7.87;2.90;;;;;;;;;;5055704;28;20114;-26
2022/06/04 09:17:39;;;;;;;4.63;2.58;;;;;;;;;;5055119;28;20334;-26
2022/06/04 09:20:15;;;;;;;4.97;2.53;;;;;;;;;;5055165;28;20084;-25
2022/06/04 09:22:43;;;;;;;4.38;2.53;;;;;;;;;;5055348;28;20041;-26
2022/06/04 09:25:12;;;;;;;6.28;2.60;;;;;;;;;;5054071;28;20545;-26
2022/06/04 09:27:43;;;;;;;5.00;2.13;;;;;;;;;;5054990;28;20052;-26
2022/06/04 09:30:16;;;;;;;5.25;2.40;;;;;;;;;;5055105;28;20479;-26
2022/06/04 09:32:45;;;;;;;10.07;7.38;;;;;;;;;;5055072;28;20052;-25
2022/06/04 09:35:31;;;;;;;3.47;2.65;;;;;;;;;;5054767;28;20068;-26
2022/06/04 09:37:59;;;;;;;3.28;2.22;;;;;;;;;;5055308;28;20041;-26
2022/06/04 09:40:30;;;;;;;5.00;2.42;;;;;;;;;;5054422;28;20564;-26
2022/06/04 09:43:05;;;;;;;5.15;3.10;;;;;;;;;;5054910;28;20048;-26
2022/06/04 09:45:31;;;;;;;4.45;2.17;;;;;;;;;;5054615;28;20056;-26
2022/06/04 09:47:59;;;;;;;3.00;2.10;;;;;;;;;;5054558;28;20045;-26
2022/06/04 09:50:32;;;;;;;4.68;2.35;;;;;;;;;;5054532;28;20056;-26
2022/06/04 09:53:03;;;;;;;3.95;2.10;;;;;;;;;;5054131;28;20491;-26
2022/06/04 09:55:31;;;;;;;3.72;2.63;;;;;;;;;;5054987;28;20076;-26
2022/06/04 09:58:17;;;;;;;6.72;2.63;;;;;;;;;;5054677;28;20395;-26
2022/06/04 10:00:54;;;;;;;3.45;2.45;;;;;;;;;;5055271;28;20073;-26
2022/06/04 10:03:20;;;;;;;5.88;2.40;;;;;;;;;;5054882;28;20045;-26
2022/06/04 10:05:50;;;;;;;4.20;2.10;;;;;;;;;;5054142;28;20132;-26
2022/06/04 10:08:20;;;;;;;6.05;2.00;;;;;;;;;;5054718;28;20045;-26
2022/06/04 10:10:46;;;;;;;5.35;2.65;;;;;;;;;;5054192;28;20049;-26
2022/06/04 10:14:12;;;;;;;4.20;2.20;;;;;;;;;;5053817;28;20052;-26
2022/06/04 10:16:44;;;;;;;4.57;2.20;;;;;;;;;;5052080;28;20083;-27
2022/06/04 10:19:13;;;;;;;7.15;2.13;;;;;;;;;;5043597;28;20490;-26
2022/06/04 10:21:41;;;;;;;4.28;2.22;;;;;;;;;;5054098;28;20529;-26
2022/06/04 10:24:23;;;;;;;6.18;2.20;;;;;;;;;;5066546;28;20126;-26
2022/06/04 10:26:58;;;;;;;3.45;2.25;;;;;;;;;;5053997;28;20057;-26
2022/06/04 10:29:30;;;;;;;4.75;2.25;;;;;;;;;;5053930;28;20045;-26
2022/06/04 10:31:57;;;;;;;4.15;2.15;;;;;;;;;;5053789;28;20486;-27
2022/06/04 10:34:45;;;;;;;4.35;2.20;;;;;;;;;;5053127;28;20088;-27
2022/06/04 10:37:17;;;;;;;4.85;2.20;;;;;;;;;;5073778;28;20123;-26
2022/06/04 10:39:46;;;;;;;3.65;1.88;;;;;;;;;;5073632;28;20048;-26
2022/06/04 10:42:22;;;;;;;3.88;1.90;;;;;;;;;;5073584;28;20045;-26
2022/06/04 10:44:58;;;;;;;4.88;2.15;;;;;;;;;;5069377;28;20048;-27
2022/06/04 10:47:28;;;;;;;8.27;3.92;;;;;;;;;;5071302;28;20393;-26
2022/06/04 10:50:09;;;;;;;3.42;2.25;;;;;;;;;;5065515;28;20051;-27
2022/06/04 10:52:43;;;;;;;5.78;2.80;;;;;;;;;;5054054;28;20040;-26
2022/06/04 10:55:12;;;;;;;6.63;2.80;;;;;;;;;;5066103;28;20049;-26
2022/06/04 10:57:51;;;;;;;3.50;1.88;;;;;;;;;;5054467;28;20045;-27
2022/06/04 11:00:23;;;;;;;4.55;2.70;;;;;;;;;;5058040;28;20171;-26
2022/06/04 11:02:55;;;;;;;3.78;2.28;;;;;;;;;;5064539;28;20077;-26
2022/06/04 11:05:21;;;;;;;3.35;1.77;;;;;;;;;;5057334;28;20086;-26
2022/06/04 11:07:53;;;;;;;6.53;2.65;;;;;;;;;;5054159;28;20072;-26
2022/06/04 11:10:22;;;;;;;4.55;2.20;;;;;;;;;;5065946;28;20045;-28
2022/06/04 11:13:04;;;;;;;6.45;1.95;;;;;;;;;;5065702;28;20044;-27
2022/06/04 11:15:34;;;;;;;6.25;1.92;;;;;;;;;;5053289;28;20514;-26
2022/06/04 11:18:17;;;;;;;3.95;2.20;;;;;;;;;;5059614;28;20198;-26
2022/06/04 11:20:55;;;;;;;3.78;2.30;;;;;;;;;;5062310;28;20505;-26
2022/06/04 11:23:25;;;;;;;5.80;2.40;;;;;;;;;;5073315;28;20395;-26
2022/06/04 11:25:53;;;;;;;4.88;2.80;;;;;;;;;;5055908;28;20045;-26
2022/06/04 11:28:24;;;;;;;6.28;2.60;;;;;;;;;;5066308;28;20047;-26
2022/06/04 11:30:50;;;;;;;6.13;2.33;;;;;;;;;;5071619;28;20049;-26
2022/06/04 11:33:17;;;;;;;5.05;2.42;;;;;;;;;;5057307;28;20052;-26
2022/06/04 11:36:03;;;;;;;6.57;2.53;;;;;;;;;;5055356;28;20045;-26
2022/06/04 11:38:36;;;;;;;4.72;2.70;;;;;;;;;;5055812;28;20059;-26
2022/06/04 11:41:18;;;;;;;5.65;2.20;;;;;;;;;;5056562;28;20041;-26
2022/06/04 11:43:54;;;;;;;4.80;2.42;;;;;;;;;;5056574;28;20073;-26
2022/06/04 11:46:32;;;;;;;6.93;2.15;;;;;;;;;;5054813;28;20391;-26
2022/06/04 11:48:58;;;;;;;6.50;2.40;;;;;;;;;;5058058;28;20041;-26
2022/06/04 11:51:37;;;;;;;5.25;2.10;;;;;;;;;;5056818;28;20084;-26
2022/06/04 11:54:15;;;;;;;8.75;2.65;;;;;;;;;;5055315;28;20049;-26
2022/06/04 11:56:56;;;;;;;6.47;2.72;;;;;;;;;;5055328;28;20085;-27
2022/06/04 11:59:30;;;;;;;3.95;2.22;;;;;;;;;;5055189;28;20552;-26
2022/06/04 12:02:01;;;;;;;6.25;3.40;;;;;;;;;;5055671;28;20088;-26
2022/06/04 12:04:33;;;;;;;6.22;3.22;;;;;;;;;;5059712;28;20043;-27
2022/06/04 12:07:05;;;;;;;6.40;2.92;;;;;;;;;;5056552;28;20044;-27
2022/06/04 12:09:35;;;;;;;7.57;3.17;;;;;;;;;;5057541;28;20105;-26
2022/06/04 12:12:14;;;;;;;5.05;2.60;;;;;;;;;;5054955;28;20349;-26
2022/06/04 12:14:59;;;;;;;6.45;3.22;;;;;;;;;;5060004;28;20065;-26
2022/06/04 12:17:39;;;;;;;5.32;2.75;;;;;;;;;;5055902;28;20053;-26
2022/06/04 12:25:43;;;;;;;7.65;3.03;;;;;;;;;;5059457;28;20084;-27
2022/06/04 12:28:24;;;;;;;5.82;2.70;;;;;;;;;;5055476;28;20067;-26
2022/06/04 12:30:50;;;;;;;8.98;3.20;;;;;;;;;;5055544;28;20053;-26
2022/06/04 12:33:25;;;;;;;8.73;2.80;;;;;;;;;;5069990;28;20045;-26
2022/06/04 12:35:56;;;;;;;5.00;2.60;;;;;;;;;;5056022;28;20041;-26
2022/06/04 12:38:23;;;;;;;5.60;2.65;;;;;;;;;;5055963;28;20406;-26
2022/06/04 12:40:51;;;;;;;6.85;3.00;;;;;;;;;;5054183;28;20048;-26
2022/06/04 12:43:18;;;;;;;6.00;2.85;;;;;;;;;;5055014;28;20041;-27
2022/06/04 12:45:47;;;;;;;6.90;2.85;;;;;;;;;;5066142;28;20141;-29
2022/06/04 12:48:22;;;;;;;7.82;3.20;;;;;;;;;;5056149;28;20047;-26
2022/06/04 12:50:50;;;;;;;6.80;2.85;;;;;;;;;;5061428;28;20052;-26
2022/06/04 12:53:19;;;;;;;7.65;2.97;;;;;;;;;;5070956;28;20043;-26
2022/06/04 12:55:45;;;;;;;6.75;2.65;;;;;;;;;;5055063;28;20540;-26
2022/06/04 12:58:30;;;;;;;6.05;2.42;;;;;;;;;;5058405;28;20044;-26
2022/06/04 13:01:01;;;;;;;6.40;2.67;;;;;;;;;;5054623;28;20128;-26
2022/06/04 13:03:29;;;;;;;3.42;2.08;;;;;;;;;;5060743;28;20045;-26
2022/06/04 13:05:57;;;;;;;8.45;2.95;;;;;;;;;;5061392;28;20043;-26
2022/06/04 13:08:30;;;;;;;5.03;2.70;;;;;;;;;;5068854;28;20129;-26
2022/06/04 13:10:56;;;;;;;5.68;2.30;;;;;;;;;;5056838;28;20482;-27
2022/06/04 13:13:22;;;;;;;7.65;3.25;;;;;;;;;;5058436;28;20043;-26
2022/06/04 13:15:52;;;;;;;9.00;3.00;;;;;;;;;;5062380;28;20071;-26
2022/06/04 13:18:29;;;;;;;8.20;2.70;;;;;;;;;;5064756;28;20040;-26
2022/06/04 13:21:00;;;;;;;7.25;2.85;;;;;;;;;;5055717;28;20041;-26
2022/06/04 13:23:34;;;;;;;8.73;5.40;;;;;;;;;;5065338;28;20080;-26
2022/06/04 13:26:00;;;;;;;11.52;3.10;;;;;;;;;;5057582;28;20430;-26
2022/06/04 13:28:37;;;;;;;6.70;3.50;;;;;;;;;;5054032;28;20131;-26
2022/06/04 13:31:06;;;;;;;7.22;3.50;;;;;;;;;;5060678;28;20069;-26
2022/06/04 13:33:36;;;;;;;6.20;3.03;;;;;;;;;;5054697;28;20049;-27
2022/06/04 13:36:02;;;;;;;7.00;3.00;;;;;;;;;;5057587;28;20084;-26
2022/06/04 13:38:30;;;;;;;5.65;3.03;;;;;;;;;;5054568;28;20053;-26
2022/06/04 13:41:04;;;;;;;5.32;2.83;;;;;;;;;;5055508;28;20148;-26
2022/06/04 13:43:31;;;;;;;4.45;2.95;;;;;;;;;;5053869;28;20532;-26
2022/06/04 13:46:05;;;;;;;9.18;3.38;;;;;;;;;;5062773;28;20060;-26
2022/06/04 13:48:31;;;;;;;8.43;2.90;;;;;;;;;;5065487;28;20048;-27
2022/06/04 13:50:58;;;;;;;6.80;2.47;;;;;;;;;;5066644;28;20052;-26
2022/06/04 13:53:26;;;;;;;7.78;2.90;;;;;;;;;;5074021;28;20098;-26
2022/06/04 13:55:54;;;;;;;7.30;3.10;;;;;;;;;;5066119;28;20045;-26
2022/06/04 13:58:27;;;;;;;6.75;2.72;;;;;;;;;;5056228;28;20040;-26
2022/06/04 14:00:55;;;;;;;6.43;2.33;;;;;;;;;;5053946;28;20048;-26
2022/06/04 14:03:23;;;;;;;7.20;3.25;;;;;;;;;;5056209;28;20041;-26
2022/06/04 14:05:51;;;;;;;9.68;2.75;;;;;;;;;;5054234;28;20049;-27
2022/06/04 14:08:30;;;;;;;7.65;2.67;;;;;;;;;;5054374;28;20048;-26
2022/06/04 14:10:59;;;;;;;4.85;2.25;;;;;;;;;;5063691;28;20049;-26
2022/06/04 14:13:40;;;;;;;6.70;2.85;;;;;;;;;;5057535;28;20064;-26
2022/06/04 14:16:09;;;;;;;10.10;2.97;;;;;;;;;;5054147;28;20142;-26
2022/06/04 14:18:35;;;;;;;5.30;2.10;;;;;;;;;;5054051;28;20116;-26
2022/06/04 14:21:07;;;;;;;7.40;2.80;;;;;;;;;;5058938;28;20041;-26
2022/06/04 14:23:40;;;;;;;4.97;2.70;;;;;;;;;;5071718;28;20041;-26
2022/06/04 14:26:22;;;;;;;5.57;3.50;;;;;;;;;;5069267;28;20137;-27
2022/06/04 14:28:58;;;;;;;8.90;3.92;;;;;;;;;;5066319;28;20048;-26
2022/06/04 14:31:38;;;;;;;10.68;2.88;;;;;;;;;;5057382;28;20439;-26
2022/06/04 14:34:04;;;;;;;6.93;2.47;;;;;;;;;;5052885;28;20403;-26
2022/06/04 14:36:34;;;;;;;7.32;3.67;;;;;;;;;;5056096;28;20069;-26
2022/06/04 14:39:01;;;;;;;6.47;2.30;;;;;;;;;;5054577;28;20049;-27
2022/06/04 14:41:27;;;;;;;8.25;2.88;;;;;;;;;;5060331;28;20106;-26
2022/06/04 14:44:20;;;;;;;7.43;3.13;;;;;;;;;;5069599;28;20509;-27
2022/06/04 14:46:46;;;;;;;5.47;2.15;;;;;;;;;;5068313;28;20048;-26
2022/06/04 14:49:12;;;;;;;9.52;3.25;;;;;;;;;;5061183;28;20131;-26
2022/06/04 14:51:49;;;;;;;7.45;2.55;;;;;;;;;;5056144;28;20119;-26
2022/06/04 14:54:15;;;;;;;5.70;2.22;;;;;;;;;;5072227;28;20049;-26
2022/06/04 14:56:54;;;;;;;6.35;2.83;;;;;;;;;;5070022;28;20094;-26
2022/06/04 14:59:20;;;;;;;6.07;2.65;;;;;;;;;;5073495;28;20044;-27
2022/06/04 15:02:05;;;;;;;4.30;2.58;;;;;;;;;;5064101;28;20505;-27
2022/06/04 15:04:51;;;;;;;6.20;2.53;;;;;;;;;;5058104;28;20533;-26
2022/06/04 15:07:23;;;;;;;5.80;2.50;;;;;;;;;;5058214;28;20074;-26